Hauptseite
METAR-TAF:

METAR-TAF

Flughäfen :

Gran Canaria, Spanien

Flughafen Gran Canaria

Breite: 27-56N, Länge: 015-23W, Höhe: 23 m

Beobachtung

Neuester Wetterbericht von vor 38 Minuten, um 13:30 UTC
Wind 20 kt aus Nord/Nordost
Temperatur 26°C
Luftfeuchtigkeit 61%
Luftdruck 1021 hPa
Sichtweite 10 km oder mehr
Leicht bewölkt in der Höhe von 2500 ft

METAR: GCLP 201330Z 03020KT 9999 FEW025 26/18 Q1021 NOSIG

Zeit: 15:08 (14:08 UTC)

Prognose

Neuester Wetterbericht von vor 6 Stunden und 8 Minuten, um 08:00 UTC
Gültige Prognose vom 20 um 09 UTC bis 21 um 09 UTC
Wind 20 kt aus Nord/Nordost
Sichtweite 10 km oder mehr
Aufgelockert bewölkt in der Höhe von 4000 ft

TAF: GCLP 200800Z 2009/2109 02020KT 9999 SCT040 TX26/2013Z TN21/2106Z

Wetterbeobachtungen und Prognosen von mehr als 4000 Flughäfen (METAR und TAF Bericht).

Die verfügbaren Stationen werden durch gelbe und rote Markierungen auf der Karte dargestellt.

Führen Sie die Maus auf sie, um den Namen der Station zu sehen.

Darauf klicken, um die Beobachtung von Wetterbeobachtungen und Prognosen zu sehen.

Um die Karte zu ändern : klicken Sie auf den grünen Tasten mit einem schwarzen Kreuz Zum Vergrößern, auf den grünen Button mit einem Gedankenstrich zu verkleinern, oder auf die grünen Pfeile für benachbarte Karten.


METAR-TAF: